createdAt,value
2018-06-15T00:00:35.043Z,21.40
2018-06-15T00:01:35.031Z,21.80
2018-06-15T00:02:35.014Z,23.00
2018-06-15T00:03:35.001Z,22.90
2018-06-15T00:04:34.987Z,22.00
2018-06-15T00:05:34.972Z,21.50
2018-06-15T00:06:34.957Z,21.80
2018-06-15T00:07:34.943Z,21.80
2018-06-15T00:08:34.936Z,21.80
2018-06-15T00:09:34.914Z,22.90
2018-06-15T00:10:34.903Z,23.10
2018-06-15T00:11:34.885Z,23.10
2018-06-15T00:12:34.872Z,23.00
2018-06-15T00:13:34.863Z,22.10
2018-06-15T00:14:34.842Z,21.20
2018-06-15T00:15:34.826Z,22.10
2018-06-15T00:16:34.815Z,23.70
2018-06-15T00:17:34.806Z,22.20
2018-06-15T00:18:34.784Z,23.20
2018-06-15T00:19:34.770Z,21.90
2018-06-15T00:20:34.754Z,22.50
2018-06-15T00:21:34.753Z,22.40
2018-06-15T00:22:34.725Z,22.20
2018-06-15T00:23:34.712Z,23.70
2018-06-15T00:24:34.706Z,23.10
2018-06-15T00:25:34.681Z,23.90
2018-06-15T00:26:34.673Z,23.10
2018-06-15T00:27:34.654Z,23.00
2018-06-15T00:28:34.639Z,23.60
2018-06-15T00:29:34.639Z,23.80
2018-06-15T00:30:34.611Z,25.00
2018-06-15T00:31:34.596Z,24.10
2018-06-15T00:32:34.585Z,23.60
2018-06-15T00:33:34.566Z,24.20
2018-06-15T00:34:34.553Z,25.50
2018-06-15T00:35:34.541Z,24.30
2018-06-15T00:36:34.523Z,24.70
2018-06-15T00:37:34.518Z,24.50
2018-06-15T00:38:34.499Z,25.70
2018-06-15T00:39:34.483Z,24.60
2018-06-15T00:40:34.464Z,24.80
2018-06-15T00:41:34.451Z,25.10
2018-06-15T00:42:34.439Z,25.40
2018-06-15T00:43:34.427Z,26.00
2018-06-15T00:44:34.410Z,25.50
2018-06-15T00:45:34.393Z,25.10
2018-06-15T00:46:34.380Z,25.40
2018-06-15T00:47:34.364Z,25.80
2018-06-15T00:48:34.350Z,25.50
2018-06-15T00:49:34.344Z,25.80
2018-06-15T00:50:34.322Z,26.20
2018-06-15T00:51:34.312Z,25.30
2018-06-15T00:52:34.289Z,25.90
2018-06-15T00:53:34.278Z,24.70
2018-06-15T00:54:34.261Z,27.20
2018-06-15T00:55:34.246Z,25.90
2018-06-15T00:56:34.230Z,25.50
2018-06-15T00:57:34.225Z,26.50
2018-06-15T00:58:34.201Z,25.90
2018-06-15T00:59:34.189Z,26.00
2018-06-15T01:00:34.183Z,26.10
2018-06-15T01:01:34.166Z,26.10
2018-06-15T01:02:34.145Z,25.60
2018-06-15T01:03:34.129Z,26.30
2018-06-15T01:04:34.113Z,25.60
2018-06-15T01:05:34.100Z,26.50
2018-06-15T01:06:34.089Z,26.00
2018-06-15T01:07:34.072Z,27.20
2018-06-15T01:08:34.059Z,26.60
2018-06-15T01:09:34.041Z,27.10
2018-06-15T01:10:34.029Z,26.70
2018-06-15T01:11:34.020Z,28.10
2018-06-15T01:12:33.997Z,26.20
2018-06-15T01:13:33.993Z,27.70
2018-06-15T01:14:33.968Z,29.10
2018-06-15T01:15:33.955Z,27.70
2018-06-15T01:16:33.939Z,27.70
2018-06-15T01:17:33.925Z,28.90
2018-06-15T01:18:33.909Z,28.00
2018-06-15T01:19:33.905Z,27.40
2018-06-15T01:20:33.883Z,28.90
2018-06-15T01:21:33.866Z,29.40
2018-06-15T01:22:33.876Z,28.90
2018-06-15T01:23:33.836Z,29.50
2018-06-15T01:24:33.826Z,30.10
2018-06-15T01:25:33.808Z,29.80
2018-06-15T01:26:33.793Z,31.20
2018-06-15T01:27:33.779Z,31.60
2018-06-15T01:28:33.764Z,31.00
2018-06-15T01:29:33.753Z,29.00
2018-06-15T01:30:33.735Z,30.10
2018-06-15T01:31:33.719Z,30.90
2018-06-15T01:32:33.714Z,31.10
2018-06-15T01:33:33.699Z,31.60
2018-06-15T01:34:33.676Z,32.00
2018-06-15T01:35:33.661Z,32.40
2018-06-15T01:36:33.647Z,30.80
2018-06-15T01:37:33.634Z,32.30
2018-06-15T01:38:33.619Z,32.80
2018-06-15T01:39:33.610Z,32.30
2018-06-15T01:40:33.592Z,31.20
2018-06-15T01:41:33.579Z,32.00
2018-06-15T01:42:33.559Z,31.60
2018-06-15T01:43:33.545Z,30.40
2018-06-15T01:44:33.531Z,30.70
2018-06-15T01:45:33.515Z,31.90
2018-06-15T01:46:33.501Z,32.70
2018-06-15T01:47:33.488Z,31.80
2018-06-15T01:48:33.471Z,33.40
2018-06-15T01:49:33.463Z,32.30
2018-06-15T01:50:33.443Z,33.70
2018-06-15T01:51:33.428Z,33.40
2018-06-15T01:52:33.413Z,33.80
2018-06-15T01:53:33.398Z,32.80
2018-06-15T01:54:33.384Z,34.20
2018-06-15T01:55:33.413Z,34.30
2018-06-15T01:56:33.353Z,33.70
2018-06-15T01:57:33.339Z,33.50
2018-06-15T01:58:33.323Z,33.80
2018-06-15T01:59:33.308Z,34.80
2018-06-15T02:00:33.295Z,36.00
2018-06-15T02:01:33.303Z,35.10
2018-06-15T02:02:33.266Z,34.90
2018-06-15T02:03:33.250Z,34.30
2018-06-15T02:04:33.234Z,34.10
2018-06-15T02:05:33.221Z,33.70
2018-06-15T02:06:33.207Z,34.50
2018-06-15T02:07:33.191Z,33.30
2018-06-15T02:08:33.176Z,32.90
2018-06-15T02:09:33.163Z,33.40
2018-06-15T02:10:33.146Z,32.60
2018-06-15T02:11:33.133Z,32.30
2018-06-15T02:12:33.114Z,32.60
2018-06-15T02:13:33.115Z,32.50
2018-06-15T02:14:33.085Z,32.90
2018-06-15T02:15:33.070Z,33.70
2018-06-15T02:16:33.206Z,32.90
2018-06-15T02:17:33.044Z,33.50
2018-06-15T02:18:33.027Z,33.40
2018-06-15T02:19:33.011Z,33.70
2018-06-15T02:20:33.011Z,32.20
2018-06-15T02:21:32.981Z,33.70
2018-06-15T02:22:32.965Z,35.40
2018-06-15T02:23:32.959Z,34.30
2018-06-15T02:24:32.953Z,33.70
2018-06-15T02:25:32.920Z,35.80
2018-06-15T02:26:32.913Z,35.20
2018-06-15T02:27:32.890Z,35.30
2018-06-15T02:28:32.875Z,36.00
2018-06-15T02:29:32.859Z,34.80
2018-06-15T02:30:32.845Z,35.50
2018-06-15T02:31:32.829Z,35.80
2018-06-15T02:32:32.814Z,36.30
2018-06-15T02:33:32.799Z,34.90
2018-06-15T02:34:32.785Z,34.50
2018-06-15T02:35:32.770Z,32.80
2018-06-15T02:36:32.755Z,33.40
2018-06-15T02:37:32.741Z,31.20
2018-06-15T02:38:32.725Z,32.30
2018-06-15T02:39:32.711Z,31.80
2018-06-15T02:40:32.692Z,32.30
2018-06-15T02:41:32.678Z,33.30
2018-06-15T02:42:32.664Z,34.10
2018-06-15T02:43:32.651Z,34.70
2018-06-15T02:44:32.632Z,35.70
2018-06-15T02:45:32.714Z,35.30
2018-06-15T02:46:32.602Z,34.80
2018-06-15T02:47:32.594Z,35.40
2018-06-15T02:48:32.571Z,35.10
2018-06-15T02:49:32.556Z,35.70
2018-06-15T02:50:32.543Z,35.40
2018-06-15T02:51:32.526Z,34.50
2018-06-15T02:52:32.513Z,34.50
2018-06-15T02:53:32.494Z,35.60
2018-06-15T02:54:32.480Z,35.20
2018-06-15T02:55:32.464Z,34.60
2018-06-15T02:56:32.450Z,35.80
2018-06-15T02:57:32.434Z,35.60
2018-06-15T02:58:32.421Z,37.30
2018-06-15T02:59:32.403Z,35.60
2018-06-15T03:00:32.389Z,35.20
2018-06-15T03:01:32.378Z,35.60
2018-06-15T03:02:32.558Z,35.20
2018-06-15T03:03:32.345Z,34.80
2018-06-15T03:04:32.327Z,32.10
2018-06-15T03:05:32.314Z,31.60
2018-06-15T03:06:32.300Z,33.60
2018-06-15T03:07:32.296Z,33.10
2018-06-15T03:08:32.270Z,33.30
2018-06-15T03:09:32.254Z,34.40
2018-06-15T03:10:32.237Z,33.80
2018-06-15T03:11:32.221Z,32.70
2018-06-15T03:12:32.208Z,34.50
2018-06-15T03:13:32.191Z,34.60
2018-06-15T03:14:32.178Z,32.80
2018-06-15T03:15:32.169Z,32.30
2018-06-15T03:16:32.145Z,32.80
2018-06-15T03:17:32.131Z,33.40
2018-06-15T03:18:32.116Z,34.30
2018-06-15T03:19:32.103Z,35.20
2018-06-15T03:20:32.087Z,34.00
2018-06-15T03:21:32.071Z,35.50
2018-06-15T03:22:32.055Z,35.30
2018-06-15T03:23:32.041Z,34.50
2018-06-15T03:24:32.077Z,35.60
2018-06-15T03:25:32.011Z,38.50
2018-06-15T03:26:31.996Z,36.70
2018-06-15T03:27:31.978Z,36.90
2018-06-15T03:28:31.962Z,37.50
2018-06-15T03:29:31.953Z,37.80
2018-06-15T03:30:31.942Z,37.90
2018-06-15T03:31:31.921Z,39.50
2018-06-15T03:32:31.903Z,39.20
2018-06-15T03:33:31.890Z,37.60
2018-06-15T03:34:31.888Z,38.60
2018-06-15T03:35:31.858Z,38.30
2018-06-15T03:36:31.851Z,37.70
2018-06-15T03:37:31.875Z,37.20
2018-06-15T03:38:31.817Z,38.00
2018-06-15T03:39:31.797Z,39.70
2018-06-15T03:40:31.782Z,37.70
2018-06-15T03:41:31.768Z,39.60
2018-06-15T03:42:31.753Z,37.90
2018-06-15T03:43:31.739Z,38.60
2018-06-15T03:44:31.723Z,36.70
2018-06-15T03:45:31.708Z,36.80
2018-06-15T03:46:31.694Z,38.10
2018-06-15T03:47:31.679Z,37.90
2018-06-15T03:48:31.663Z,38.90
2018-06-15T03:49:31.658Z,37.40
2018-06-15T03:50:31.633Z,38.80
2018-06-15T03:51:31.736Z,37.30
2018-06-15T03:52:31.602Z,38.10
2018-06-15T03:53:31.590Z,38.90
2018-06-15T03:54:31.574Z,36.80
2018-06-15T03:55:31.557Z,37.90
2018-06-15T03:56:31.543Z,38.90
2018-06-15T03:57:31.529Z,37.60
2018-06-15T03:58:31.516Z,38.60
2018-06-15T03:59:31.499Z,37.20
2018-06-15T04:00:31.491Z,38.40
2018-06-15T04:01:31.472Z,39.10
2018-06-15T04:02:31.454Z,37.50
2018-06-15T04:03:31.439Z,40.10
2018-06-15T04:04:31.427Z,39.90
2018-06-15T04:05:31.410Z,39.60
2018-06-15T04:06:31.395Z,40.40
2018-06-15T04:07:31.489Z,38.80
2018-06-15T04:08:31.367Z,39.00
2018-06-15T04:09:31.351Z,40.00
2018-06-15T04:10:31.344Z,40.30
2018-06-15T04:11:31.321Z,40.10
2018-06-15T04:12:31.316Z,39.90
2018-06-15T04:13:31.291Z,37.80
2018-06-15T04:14:31.277Z,38.80
2018-06-15T04:15:31.263Z,39.20
2018-06-15T04:16:31.248Z,39.80
2018-06-15T04:17:31.232Z,40.00
2018-06-15T04:18:31.218Z,39.30
2018-06-15T04:19:31.202Z,38.60
2018-06-15T04:20:31.188Z,38.30
2018-06-15T04:21:31.174Z,39.30
2018-06-15T04:22:31.158Z,38.20
2018-06-15T04:23:31.142Z,40.60
2018-06-15T04:24:31.130Z,39.50
2018-06-15T04:25:31.115Z,38.10
2018-06-15T04:26:31.100Z,39.60
2018-06-15T04:27:31.085Z,38.80
2018-06-15T04:28:31.070Z,38.70
2018-06-15T04:29:31.057Z,39.00
2018-06-15T04:30:31.041Z,38.80
2018-06-15T04:31:31.027Z,38.20
2018-06-15T04:32:31.020Z,38.60
2018-06-15T04:33:30.998Z,39.70
2018-06-15T04:34:30.986Z,39.10
2018-06-15T04:35:30.966Z,39.30
2018-06-15T04:36:30.953Z,38.30
2018-06-15T04:37:30.938Z,38.10
2018-06-15T04:38:30.924Z,39.10
2018-06-15T04:39:30.910Z,38.20
2018-06-15T04:40:30.892Z,37.80
2018-06-15T04:41:30.880Z,38.50
2018-06-15T04:42:30.876Z,37.60
2018-06-15T04:43:30.850Z,38.20
2018-06-15T04:44:30.845Z,40.00
2018-06-15T04:45:30.821Z,38.80
2018-06-15T04:46:30.808Z,38.30
2018-06-15T04:47:30.791Z,39.30
2018-06-15T04:48:30.779Z,39.10
2018-06-15T04:49:30.763Z,38.00
2018-06-15T04:50:30.748Z,37.80
2018-06-15T04:51:30.734Z,37.60
2018-06-15T04:52:30.720Z,38.50
2018-06-15T04:53:30.706Z,37.20
2018-06-15T04:54:30.693Z,38.20
2018-06-15T04:55:30.675Z,36.90
2018-06-15T04:56:30.662Z,37.70
2018-06-15T04:57:30.656Z,39.30
2018-06-15T04:58:30.632Z,38.50
2018-06-15T04:59:30.634Z,36.90
2018-06-15T05:00:30.611Z,39.40
2018-06-15T05:01:30.589Z,38.20
2018-06-15T05:02:30.577Z,37.10
2018-06-15T05:03:30.569Z,35.60
2018-06-15T05:04:30.546Z,36.10
2018-06-15T05:05:30.540Z,37.80
2018-06-15T05:06:30.522Z,37.60
2018-06-15T05:07:30.503Z,36.70
2018-06-15T05:08:30.498Z,37.00
2018-06-15T05:09:30.476Z,39.70
2018-06-15T05:10:30.462Z,37.90
2018-06-15T05:11:30.448Z,38.10
2018-06-15T05:12:30.436Z,37.80
2018-06-15T05:13:30.420Z,36.50
2018-06-15T05:14:30.407Z,37.40
2018-06-15T05:15:30.410Z,37.30
2018-06-15T05:16:30.376Z,37.30
2018-06-15T05:17:30.364Z,36.80
2018-06-15T05:18:30.357Z,36.80
2018-06-15T05:19:30.337Z,37.60
2018-06-15T05:20:30.329Z,38.50
2018-06-15T05:21:30.306Z,36.60
2018-06-15T05:22:30.291Z,36.90
2018-06-15T05:23:30.278Z,35.80
2018-06-15T05:24:30.263Z,36.20
2018-06-15T05:25:30.250Z,36.40
2018-06-15T05:26:30.250Z,36.60
2018-06-15T05:27:30.225Z,35.80
2018-06-15T05:28:30.206Z,36.30
2018-06-15T05:29:30.195Z,36.50
2018-06-15T05:30:30.181Z,36.00
2018-06-15T05:31:30.165Z,37.80
2018-06-15T05:32:30.152Z,36.50
2018-06-15T05:33:30.138Z,36.50
2018-06-15T05:34:30.124Z,36.50
2018-06-15T05:35:30.110Z,37.00
2018-06-15T05:36:30.098Z,35.90
2018-06-15T05:37:30.082Z,36.20
2018-06-15T05:38:30.068Z,37.70
2018-06-15T05:39:30.055Z,36.10
2018-06-15T05:40:30.042Z,35.80
2018-06-15T05:41:30.035Z,36.30
2018-06-15T05:42:30.013Z,36.60
2018-06-15T05:43:29.999Z,34.70
2018-06-15T05:44:29.986Z,35.40
2018-06-15T05:45:29.979Z,35.00
2018-06-15T05:46:29.959Z,35.50
2018-06-15T05:47:29.945Z,35.70
2018-06-15T05:48:29.943Z,37.20
2018-06-15T05:49:29.918Z,35.50
2018-06-15T05:50:29.903Z,36.10
2018-06-15T05:51:29.892Z,35.90
2018-06-15T05:52:29.878Z,34.50
2018-06-15T05:53:29.864Z,35.80
2018-06-15T05:54:29.848Z,34.90
2018-06-15T05:55:29.837Z,34.90
2018-06-15T05:56:29.826Z,35.40
2018-06-15T05:57:29.815Z,35.80
2018-06-15T05:58:29.797Z,35.30
2018-06-15T05:59:29.781Z,36.20
2018-06-15T06:00:29.793Z,37.70
2018-06-15T06:01:29.752Z,35.10
2018-06-15T06:02:29.739Z,34.90
2018-06-15T06:03:29.729Z,35.50
2018-06-15T06:04:29.720Z,35.60
2018-06-15T06:05:29.700Z,35.60
2018-06-15T06:06:29.684Z,36.20
2018-06-15T06:07:29.679Z,36.80
2018-06-15T06:08:29.659Z,37.30
2018-06-15T06:09:29.646Z,35.60
2018-06-15T06:10:29.642Z,35.60
2018-06-15T06:11:29.620Z,34.50
2018-06-15T06:12:29.613Z,35.10
2018-06-15T06:13:29.592Z,35.80
2018-06-15T06:14:29.579Z,34.80
2018-06-15T06:15:29.565Z,34.20
2018-06-15T06:16:29.551Z,35.40
2018-06-15T06:17:29.538Z,34.50
2018-06-15T06:18:29.525Z,35.10
2018-06-15T06:19:29.510Z,33.20
2018-06-15T06:20:29.498Z,33.40
2018-06-15T06:21:29.484Z,35.40
2018-06-15T06:22:29.473Z,34.00
2018-06-15T06:23:29.465Z,36.90
2018-06-15T06:24:29.445Z,36.40
2018-06-15T06:25:29.431Z,36.80
2018-06-15T06:26:29.418Z,36.60
2018-06-15T06:27:29.404Z,36.30
2018-06-15T06:28:29.400Z,36.10
2018-06-15T06:29:29.378Z,36.40
2018-06-15T06:30:29.366Z,34.60
2018-06-15T06:31:29.356Z,35.40
2018-06-15T06:32:29.386Z,34.90
2018-06-15T06:33:29.330Z,33.50
2018-06-15T06:34:29.316Z,33.60
2018-06-15T06:35:29.313Z,32.60
2018-06-15T06:36:29.298Z,32.40
2018-06-15T06:37:29.283Z,32.40
2018-06-15T06:38:29.274Z,31.30
2018-06-15T06:39:29.267Z,32.90
2018-06-15T06:40:29.251Z,32.00
2018-06-15T06:41:29.249Z,32.60
2018-06-15T06:42:29.232Z,32.00
2018-06-15T06:43:29.221Z,33.90
2018-06-15T06:44:29.211Z,31.70
2018-06-15T06:45:29.200Z,32.50
2018-06-15T06:46:29.192Z,33.20
2018-06-15T06:47:29.190Z,33.00
2018-06-15T06:48:29.170Z,34.40
2018-06-15T06:49:29.162Z,33.40
2018-06-15T06:50:29.201Z,33.00
2018-06-15T06:51:29.141Z,33.00
2018-06-15T06:52:29.131Z,32.10
2018-06-15T06:53:29.125Z,34.30
2018-06-15T06:54:29.124Z,32.70
2018-06-15T06:55:29.104Z,32.10
2018-06-15T06:56:29.096Z,31.60
2018-06-15T06:57:29.087Z,31.50
2018-06-15T06:58:29.129Z,31.10
2018-06-15T06:59:29.069Z,31.30
2018-06-15T07:00:29.061Z,31.10
2018-06-15T07:01:29.048Z,31.20
2018-06-15T07:02:29.039Z,30.80
2018-06-15T07:03:29.031Z,30.90
2018-06-15T07:04:29.018Z,31.90
2018-06-15T07:05:29.010Z,29.50
2018-06-15T07:06:28.998Z,30.50
2018-06-15T07:07:28.991Z,29.50
2018-06-15T07:08:28.984Z,30.90
2018-06-15T07:09:28.968Z,30.10
2018-06-15T07:10:28.959Z,31.80
2018-06-15T07:11:28.949Z,31.60
2018-06-15T07:12:28.936Z,30.40
2018-06-15T07:13:28.929Z,30.60
2018-06-15T07:14:28.925Z,31.60
2018-06-15T07:15:28.904Z,30.70
2018-06-15T07:16:28.893Z,32.60
2018-06-15T07:17:28.899Z,31.50
2018-06-15T07:18:28.871Z,31.80
2018-06-15T07:19:28.860Z,32.20
2018-06-15T07:20:28.857Z,31.80
2018-06-15T07:21:28.842Z,31.70
2018-06-15T07:22:28.829Z,30.80
2018-06-15T07:23:28.817Z,31.30
2018-06-15T07:24:28.806Z,29.90
2018-06-15T07:25:28.797Z,31.90
2018-06-15T07:26:28.783Z,32.90
2018-06-15T07:27:28.773Z,30.80
2018-06-15T07:28:28.760Z,29.90
2018-06-15T07:29:28.760Z,30.40
2018-06-15T07:30:28.738Z,31.00
2018-06-15T07:31:28.728Z,31.60
2018-06-15T07:32:28.724Z,30.90
2018-06-15T07:33:28.770Z,32.30
2018-06-15T07:34:28.692Z,30.70
2018-06-15T07:35:28.680Z,30.40
2018-06-15T07:36:28.770Z,31.90
2018-06-15T07:37:28.665Z,32.00
2018-06-15T07:38:28.646Z,30.50
2018-06-15T07:39:28.696Z,31.00
2018-06-15T07:40:28.620Z,31.60
2018-06-15T07:41:28.609Z,31.20
2018-06-15T07:42:28.610Z,31.00
2018-06-15T07:43:28.588Z,31.20
2018-06-15T07:44:28.577Z,31.10
2018-06-15T07:45:28.562Z,30.20
2018-06-15T07:46:28.549Z,30.00
2018-06-15T07:47:28.535Z,30.30
2018-06-15T07:48:28.527Z,30.70
2018-06-15T07:49:28.521Z,30.20
2018-06-15T07:50:28.501Z,30.60
2018-06-15T07:51:28.487Z,31.80
2018-06-15T07:52:28.648Z,30.80
2018-06-15T07:53:28.473Z,31.50
2018-06-15T07:54:28.456Z,31.90
2018-06-15T07:55:28.439Z,30.50
2018-06-15T07:56:28.426Z,31.10
2018-06-15T07:57:28.416Z,31.40
2018-06-15T07:58:28.403Z,31.30
2018-06-15T07:59:28.439Z,31.40
2018-06-15T08:00:28.377Z,31.50
2018-06-15T08:01:28.365Z,32.50
2018-06-15T08:02:28.359Z,34.80
2018-06-15T08:03:28.342Z,32.80
2018-06-15T08:04:28.330Z,32.20
2018-06-15T08:05:28.324Z,33.50
2018-06-15T08:06:28.305Z,32.00
2018-06-15T08:07:28.294Z,33.80
2018-06-15T08:08:28.434Z,33.40
2018-06-15T08:09:28.287Z,31.10
2018-06-15T08:10:28.259Z,29.40
2018-06-15T08:11:28.247Z,30.20
2018-06-15T08:12:28.236Z,31.50
2018-06-15T08:13:28.231Z,30.60
2018-06-15T08:14:28.224Z,29.80
2018-06-15T08:15:28.215Z,28.40
2018-06-15T08:16:28.202Z,29.60
2018-06-15T08:17:28.185Z,28.60
2018-06-15T08:18:28.182Z,28.40
2018-06-15T08:19:28.173Z,30.10
2018-06-15T08:20:28.159Z,29.80
2018-06-15T08:21:28.144Z,29.90
2018-06-15T08:22:28.134Z,29.60
2018-06-15T08:23:28.129Z,30.20
2018-06-15T08:24:28.163Z,28.80
2018-06-15T08:25:28.104Z,24.30
2018-06-15T08:26:28.102Z,25.10
2018-06-15T08:27:28.083Z,24.80
2018-06-15T08:28:28.074Z,25.70
2018-06-15T08:29:28.068Z,25.40
2018-06-15T08:30:28.055Z,25.30
2018-06-15T08:31:28.061Z,24.90
2018-06-15T08:32:28.035Z,26.10
2018-06-15T08:33:28.026Z,25.40
2018-06-15T08:34:28.020Z,25.30
2018-06-15T08:35:28.007Z,25.50
2018-06-15T08:36:27.997Z,24.80
2018-06-15T08:37:27.996Z,23.70
2018-06-15T08:38:27.979Z,24.90
2018-06-15T08:39:27.971Z,25.80
2018-06-15T08:40:27.958Z,24.80
2018-06-15T08:41:27.948Z,23.40
2018-06-15T08:42:27.941Z,24.80
2018-06-15T08:43:27.931Z,24.00
2018-06-15T08:44:27.924Z,23.30
2018-06-15T08:45:28.012Z,23.00
2018-06-15T08:46:27.908Z,21.90
2018-06-15T08:47:27.892Z,21.00
2018-06-15T08:48:27.884Z,21.00
2018-06-15T08:49:27.873Z,21.70
2018-06-15T08:50:27.866Z,21.50
2018-06-15T08:51:27.864Z,21.10
2018-06-15T08:52:27.847Z,23.10
2018-06-15T08:53:27.837Z,22.00
2018-06-15T08:54:27.828Z,23.00
2018-06-15T08:55:27.827Z,20.10
2018-06-15T08:56:27.809Z,18.60
2018-06-15T08:57:27.799Z,17.20
2018-06-15T08:58:27.798Z,16.80
2018-06-15T08:59:27.789Z,17.80
2018-06-15T09:00:27.784Z,18.20
2018-06-15T09:01:27.812Z,19.20
2018-06-15T09:02:27.754Z,20.00
2018-06-15T09:03:27.748Z,17.50
2018-06-15T09:04:27.735Z,19.10
2018-06-15T09:05:27.727Z,18.80
2018-06-15T09:06:27.717Z,19.00
2018-06-15T09:07:27.712Z,20.10
2018-06-15T09:08:27.705Z,19.00
2018-06-15T09:09:27.689Z,21.10
2018-06-15T09:10:27.680Z,20.30
2018-06-15T09:11:27.670Z,19.70
2018-06-15T09:12:27.661Z,19.40
2018-06-15T09:13:27.653Z,19.70
2018-06-15T09:14:27.645Z,18.80
2018-06-15T09:15:27.644Z,19.60
2018-06-15T09:16:27.651Z,18.70
2018-06-15T09:17:27.680Z,18.50
2018-06-15T09:18:27.615Z,18.40
2018-06-15T09:19:27.604Z,18.20
2018-06-15T09:20:27.598Z,19.20
2018-06-15T09:21:27.587Z,17.90
2018-06-15T09:22:27.727Z,18.40
2018-06-15T09:23:27.567Z,19.80
2018-06-15T09:24:27.559Z,19.10
2018-06-15T09:25:27.560Z,18.60
2018-06-15T09:26:27.544Z,18.10
2018-06-15T09:27:27.539Z,18.70
2018-06-15T09:28:27.526Z,19.40
2018-06-15T09:29:27.518Z,20.00
2018-06-15T09:30:27.509Z,19.90
2018-06-15T09:31:27.500Z,19.60
2018-06-15T09:32:27.495Z,18.60
2018-06-15T09:33:27.480Z,17.70
2018-06-15T09:34:27.474Z,19.60
2018-06-15T09:35:27.465Z,19.60
2018-06-15T09:36:27.455Z,18.60
2018-06-15T09:37:27.453Z,17.60
2018-06-15T09:38:27.441Z,17.80
2018-06-15T09:39:27.429Z,17.60
2018-06-15T09:40:27.436Z,21.00
2018-06-15T09:41:27.464Z,17.60
2018-06-15T09:42:27.413Z,17.60
2018-06-15T09:43:27.397Z,17.50
2018-06-15T09:44:27.392Z,17.70
2018-06-15T09:45:27.379Z,16.60
2018-06-15T09:46:27.381Z,18.20
2018-06-15T09:47:27.380Z,17.90
2018-06-15T09:48:27.357Z,17.30
2018-06-15T09:49:27.348Z,16.80
2018-06-15T09:50:27.340Z,16.90
2018-06-15T09:51:27.342Z,17.50
2018-06-15T09:52:27.326Z,17.00
2018-06-15T09:53:27.327Z,17.10
2018-06-15T09:54:27.321Z,17.60
2018-06-15T09:55:27.309Z,17.80
2018-06-15T09:56:27.310Z,15.60
2018-06-15T09:57:27.286Z,16.40
2018-06-15T09:58:27.278Z,15.80
2018-06-15T09:59:27.274Z,16.40
2018-06-15T10:00:27.273Z,16.00
2018-06-15T10:01:27.269Z,15.30
2018-06-15T10:02:27.249Z,16.30
2018-06-15T10:03:27.247Z,16.40
2018-06-15T10:04:27.231Z,16.80
2018-06-15T10:05:27.231Z,17.10
2018-06-15T10:06:27.216Z,16.50
2018-06-15T10:07:27.206Z,16.30
2018-06-15T10:08:27.206Z,17.10
2018-06-15T10:09:27.201Z,17.80
2018-06-15T10:10:27.186Z,17.80
2018-06-15T10:11:27.182Z,18.60
2018-06-15T10:12:27.169Z,17.70
2018-06-15T10:13:27.158Z,17.90
2018-06-15T10:14:27.151Z,17.20
2018-06-15T10:15:27.139Z,18.20
2018-06-15T10:16:27.132Z,17.80
2018-06-15T10:17:27.123Z,17.90
2018-06-15T10:18:27.115Z,18.30
2018-06-15T10:19:27.117Z,19.10
2018-06-15T10:20:27.098Z,18.40
2018-06-15T10:21:27.099Z,18.90
2018-06-15T10:22:27.079Z,18.20
2018-06-15T10:23:27.071Z,18.10
2018-06-15T10:24:27.068Z,18.20
2018-06-15T10:25:27.053Z,17.40
2018-06-15T10:26:27.053Z,17.80
2018-06-15T10:27:27.046Z,17.80
2018-06-15T10:28:27.046Z,16.50
2018-06-15T10:29:27.029Z,16.80
2018-06-15T10:30:27.024Z,15.20
2018-06-15T10:31:27.010Z,15.00
2018-06-15T10:32:27.005Z,14.20
2018-06-15T10:33:27.000Z,13.80
2018-06-15T10:34:27.003Z,13.70
2018-06-15T10:35:27.008Z,13.90
2018-06-15T10:36:26.992Z,13.20
2018-06-15T10:37:26.990Z,14.10
2018-06-15T10:38:26.994Z,13.10
2018-06-15T10:40:25.866Z,12.40
2018-06-15T10:40:26.999Z,13.10
2018-06-15T10:41:33.249Z,13.90
2018-06-15T10:42:26.991Z,14.00
2018-06-15T10:43:26.988Z,13.60
2018-06-15T10:44:26.984Z,12.40
2018-06-15T10:45:27.007Z,12.40
2018-06-15T10:46:26.994Z,13.10
2018-06-15T10:47:26.992Z,13.40
2018-06-15T10:48:26.987Z,13.30
2018-06-15T10:49:26.984Z,12.70
2018-06-15T10:50:26.995Z,13.30
2018-06-15T10:51:26.996Z,13.40
2018-06-15T10:52:26.989Z,13.50
2018-06-15T10:53:27.008Z,13.20
2018-06-15T10:54:26.993Z,13.20
2018-06-15T10:55:26.999Z,14.10
2018-06-15T10:56:26.994Z,12.90
2018-06-15T10:57:26.995Z,12.90
2018-06-15T10:58:27.006Z,13.60
2018-06-15T10:59:26.995Z,13.30
2018-06-15T11:00:26.999Z,12.80
2018-06-15T11:01:26.999Z,12.70
2018-06-15T11:02:27.023Z,11.60
2018-06-15T11:03:27.007Z,10.70
2018-06-15T11:04:27.008Z,9.90
2018-06-15T11:05:27.011Z,9.90
2018-06-15T11:06:27.015Z,9.00
2018-06-15T11:07:27.014Z,8.60
2018-06-15T11:08:27.016Z,8.40
2018-06-15T11:09:27.018Z,9.60
2018-06-15T11:10:27.028Z,9.40
2018-06-15T11:11:27.025Z,9.70
2018-06-15T11:12:27.080Z,9.70
2018-06-15T11:13:27.037Z,10.10
2018-06-15T11:14:27.040Z,10.20
2018-06-15T11:15:27.029Z,10.50
2018-06-15T11:16:27.032Z,11.10
2018-06-15T11:17:27.033Z,9.80
2018-06-15T11:18:27.037Z,10.10
2018-06-15T11:19:27.037Z,9.70
2018-06-15T11:20:27.046Z,11.40
2018-06-15T11:21:27.043Z,12.20
2018-06-15T11:22:27.047Z,11.90
2018-06-15T11:23:27.052Z,12.90
2018-06-15T11:24:27.050Z,12.50
2018-06-15T11:25:27.052Z,13.50
2018-06-15T11:26:27.060Z,12.20
2018-06-15T11:27:27.055Z,13.10
2018-06-15T11:28:27.056Z,12.80
2018-06-15T11:29:27.061Z,12.30
2018-06-15T11:30:27.060Z,11.60
2018-06-15T11:31:27.065Z,13.30
2018-06-15T11:32:27.067Z,14.30
2018-06-15T11:33:27.058Z,15.50
2018-06-15T11:34:27.060Z,15.70
2018-06-15T11:35:27.056Z,15.50
2018-06-15T11:36:27.057Z,13.60
2018-06-15T11:37:27.053Z,14.20
2018-06-15T11:38:27.059Z,13.80
2018-06-15T11:39:27.054Z,12.90
2018-06-15T11:40:27.057Z,14.10
2018-06-15T11:41:27.051Z,14.90
2018-06-15T11:42:27.063Z,15.00
2018-06-15T11:43:27.047Z,13.70
2018-06-15T11:44:27.051Z,13.90
2018-06-15T11:45:27.043Z,13.20
2018-06-15T11:46:27.045Z,13.70
2018-06-15T11:47:27.036Z,14.00
2018-06-15T11:48:27.037Z,14.70
2018-06-15T11:49:27.032Z,15.00
2018-06-15T11:50:27.049Z,14.60
2018-06-15T11:51:27.078Z,14.30
2018-06-15T11:52:27.025Z,13.50
2018-06-15T11:53:27.025Z,15.60
2018-06-15T11:54:27.017Z,15.50
2018-06-15T11:55:27.015Z,15.20
2018-06-15T11:56:27.018Z,14.70
2018-06-15T11:57:27.049Z,14.10
2018-06-15T11:58:27.021Z,13.90
2018-06-15T11:59:27.006Z,13.70
2018-06-15T12:00:26.995Z,13.90
2018-06-15T12:01:26.996Z,13.40
2018-06-15T12:02:26.985Z,13.70
2018-06-15T12:03:26.986Z,13.40
2018-06-15T12:04:26.978Z,14.40
2018-06-15T12:05:26.973Z,13.90
2018-06-15T12:06:26.972Z,13.80
2018-06-15T12:07:26.963Z,13.30
2018-06-15T12:08:26.958Z,13.30
2018-06-15T12:09:26.953Z,14.00
2018-06-15T12:10:26.948Z,14.60
2018-06-15T12:11:26.952Z,14.70
2018-06-15T12:12:26.988Z,14.80
2018-06-15T12:13:26.940Z,15.00
2018-06-15T12:14:26.931Z,13.70
2018-06-15T12:15:26.922Z,14.30
2018-06-15T12:16:26.915Z,14.00
2018-06-15T12:17:26.911Z,14.10
2018-06-15T12:18:26.904Z,14.10
2018-06-15T12:19:26.898Z,14.20
2018-06-15T12:20:26.891Z,13.40
2018-06-15T12:21:26.885Z,13.30
2018-06-15T12:22:26.880Z,13.60
2018-06-15T12:23:26.872Z,14.20
2018-06-15T12:24:26.867Z,14.10
2018-06-15T12:25:26.864Z,14.30
2018-06-15T12:26:26.853Z,13.70
2018-06-15T12:27:26.849Z,13.60
2018-06-15T12:28:26.945Z,13.90
2018-06-15T12:29:26.838Z,13.40
2018-06-15T12:30:26.829Z,14.60
2018-06-15T12:31:26.826Z,14.10
2018-06-15T12:32:26.821Z,13.90
2018-06-15T12:33:26.806Z,13.00
2018-06-15T12:34:26.807Z,16.10
2018-06-15T12:35:26.798Z,19.80
2018-06-15T12:36:26.809Z,14.10
2018-06-15T12:37:26.786Z,14.60
2018-06-15T12:38:26.771Z,12.60
2018-06-15T12:39:26.773Z,13.30
2018-06-15T12:40:26.764Z,13.00
2018-06-15T12:41:26.751Z,12.20
2018-06-15T12:42:26.746Z,13.40
2018-06-15T12:43:26.735Z,12.20
2018-06-15T12:44:26.727Z,12.60
2018-06-15T12:45:26.729Z,12.00
2018-06-15T12:46:26.730Z,12.60
2018-06-15T12:47:26.719Z,12.90
2018-06-15T12:48:26.697Z,12.80
2018-06-15T12:49:26.745Z,13.30
2018-06-15T12:50:26.684Z,12.90
2018-06-15T12:51:26.681Z,12.90
2018-06-15T12:52:26.670Z,12.80
2018-06-15T12:53:26.664Z,13.00